Time;durP1;ratioP1;P1;durP2;ratioP2;P2;SDS_P1;SDS_P2;PMS_P1;PMS_P2;Temp;Humidity;BMP_temperature;BMP_pressure;BME280_temperature;BME280_humidity;BME280_pressure;Samples;Min_cycle;Max_cycle;Signal;HPM_P1;HPM_P2
2022/11/12 00:00:52;;;;;;;5.73;4.20;;;;;;;8.37;100.00;102648.97;4977754;28;20716;-54
2022/11/12 00:03:20;;;;;;;5.90;4.90;;;;;;;8.37;100.00;102641.13;4981534;28;20799;-54
2022/11/12 00:05:49;;;;;;;5.83;4.60;;;;;;;8.40;100.00;102649.13;4987112;28;20245;-54
2022/11/12 00:08:16;;;;;;;4.40;4.00;;;;;;;8.35;100.00;102655.88;4980373;28;20234;-54
2022/11/12 00:10:42;;;;;;;7.07;4.17;;;;;;;8.33;100.00;102652.31;4977255;28;20284;-53
2022/11/12 00:13:09;;;;;;;5.93;3.63;;;;;;;8.32;100.00;102645.31;4979123;28;20285;-53
2022/11/12 00:15:36;;;;;;;4.50;4.00;;;;;;;8.31;100.00;102641.78;4982030;28;20686;-53
2022/11/12 00:18:02;;;;;;;5.87;4.40;;;;;;;8.30;100.00;102641.72;4978486;28;20771;-53
2022/11/12 00:20:29;;;;;;;5.17;3.80;;;;;;;8.29;100.00;102646.06;4978964;28;20257;-53
2022/11/12 00:22:57;;;;;;;5.30;3.80;;;;;;;8.34;100.00;102646.25;4976684;28;20237;-53
2022/11/12 00:25:24;;;;;;;5.23;3.77;;;;;;;8.39;100.00;102636.91;4984142;28;20328;-53
2022/11/12 00:27:50;;;;;;;4.40;3.57;;;;;;;8.42;100.00;102647.44;4984579;28;20241;-53
2022/11/12 00:30:17;;;;;;;5.63;3.87;;;;;;;8.44;100.00;102640.56;4974302;28;20253;-52
2022/11/12 00:32:43;;;;;;;6.10;4.47;;;;;;;8.45;100.00;102642.34;4981495;28;20629;-53
2022/11/12 00:35:11;;;;;;;4.37;3.60;;;;;;;8.48;100.00;102642.47;4985519;28;20267;-52
2022/11/12 00:37:37;;;;;;;3.87;3.53;;;;;;;8.50;100.00;102640.81;4981960;28;20242;-52
2022/11/12 00:40:07;;;;;;;6.37;3.80;;;;;;;8.50;100.00;102645.16;4982484;28;20234;-53
2022/11/12 00:42:33;;;;;;;5.10;3.87;;;;;;;8.52;100.00;102638.22;4984639;28;20638;-54
2022/11/12 00:45:00;;;;;;;5.47;3.50;;;;;;;8.50;100.00;102642.53;4979693;28;20329;-53
2022/11/12 00:47:27;;;;;;;4.17;2.93;;;;;;;8.48;99.96;102647.69;4984043;28;20329;-53
2022/11/12 00:49:53;;;;;;;4.40;3.70;;;;;;;8.50;100.00;102651.28;4980493;28;20325;-52
2022/11/12 00:52:20;;;;;;;4.67;3.33;;;;;;;8.47;100.00;102650.28;4980580;28;20317;-53
2022/11/12 00:54:48;;;;;;;5.20;3.30;;;;;;;8.40;100.00;102643.91;4980506;28;20796;-53
2022/11/12 00:57:15;;;;;;;4.17;3.43;;;;;;;8.34;100.00;102651.47;4973240;28;20241;-52
2022/11/12 00:59:42;;;;;;;6.33;3.47;;;;;;;8.31;100.00;102651.34;4985049;28;20304;-53
2022/11/12 01:02:09;;;;;;;7.00;4.37;;;;;;;8.26;100.00;102650.28;4973890;28;20246;-53
2022/11/12 01:04:35;;;;;;;4.97;4.20;;;;;;;8.23;100.00;102645.81;4984099;28;20244;-53
2022/11/12 01:07:02;;;;;;;4.80;3.90;;;;;;;8.20;100.00;102644.81;4976001;28;20246;-54
2022/11/12 01:09:29;;;;;;;6.33;3.83;;;;;;;8.15;100.00;102643.75;4978291;28;20890;-53
2022/11/12 01:11:55;;;;;;;5.10;4.33;;;;;;;8.10;100.00;102646.16;4983393;28;20315;-54
2022/11/12 01:14:23;;;;;;;5.53;4.70;;;;;;;8.06;100.00;102646.88;4984112;28;20245;-53
2022/11/12 01:16:50;;;;;;;7.37;4.97;;;;;;;8.05;100.00;102635.53;4976263;28;20247;-54
2022/11/12 01:19:16;;;;;;;5.93;4.80;;;;;;;8.01;100.00;102645.81;4975628;28;20317;-53
2022/11/12 01:21:44;;;;;;;4.33;3.90;;;;;;;8.01;100.00;102645.81;4976392;28;20333;-56
2022/11/12 01:24:11;;;;;;;5.63;4.90;;;;;;;7.98;100.00;102637.84;4982118;28;20326;-53
2022/11/12 01:26:39;;;;;;;6.97;4.33;;;;;;;7.95;100.00;102641.22;4985331;28;20237;-52
2022/11/12 01:29:05;;;;;;;6.17;4.13;;;;;;;7.93;100.00;102645.47;4985878;28;20244;-53
2022/11/12 01:31:34;;;;;;;4.83;4.20;;;;;;;7.91;100.00;102641.94;4984767;28;20320;-56
2022/11/12 01:34:03;;;;;;;4.83;3.63;;;;;;;7.93;100.00;102642.84;4982568;28;20238;-52
2022/11/12 01:36:33;;;;;;;4.90;3.97;;;;;;;7.91;100.00;102643.66;4977491;28;20288;-52
2022/11/12 01:39:00;;;;;;;9.87;3.70;;;;;;;7.89;100.00;102652.31;4978279;28;20230;-52
2022/11/12 01:41:28;;;;;;;4.13;3.13;;;;;;;7.89;100.00;102660.16;4981894;28;20238;-52
2022/11/12 01:44:14;;;;;;;5.33;3.07;;;;;;;7.92;100.00;102654.16;4983939;28;20236;-53
2022/11/12 01:47:00;;;;;;;4.80;3.30;;;;;;;7.90;100.00;102661.06;4978810;28;20334;-53
2022/11/12 01:49:31;;;;;;;3.87;2.50;;;;;;;7.91;100.00;102652.38;4972745;28;20240;-53
2022/11/12 01:52:06;;;;;;;5.77;3.00;;;;;;;7.95;100.00;102658.63;4979185;28;20762;-54
2022/11/12 01:54:33;;;;;;;3.07;2.60;;;;;;;7.92;100.00;102651.53;4974696;28;20332;-54
2022/11/12 01:57:00;;;;;;;6.00;3.13;;;;;;;7.93;100.00;102655.94;4982559;28;20246;-53
2022/11/12 01:59:31;;;;;;;5.10;3.13;;;;;;;7.97;100.00;102667.41;4980501;28;20316;-53
2022/11/12 02:01:59;;;;;;;2.57;2.37;;;;;;;7.98;100.00;102654.41;4972730;28;20961;-53
2022/11/12 02:04:27;;;;;;;3.80;2.80;;;;;;;8.04;100.00;102659.91;4976881;28;20233;-53
2022/11/12 02:06:56;;;;;;;3.33;2.50;;;;;;;8.05;100.00;102659.06;4983557;28;20324;-52
2022/11/12 02:09:23;;;;;;;2.97;2.77;;;;;;;8.04;100.00;102654.69;4965347;28;20329;-53
2022/11/12 02:11:50;;;;;;;5.27;2.43;;;;;;;8.05;100.00;102658.19;4972980;28;20222;-53
2022/11/12 02:14:15;;;;;;;3.10;2.80;;;;;;;8.04;99.79;102664.25;4973545;28;20227;-53
2022/11/12 02:16:44;;;;;;;3.00;2.30;;;;;;;8.07;99.95;102659.13;4979451;28;20750;-53
2022/11/12 02:19:15;;;;;;;2.93;2.30;;;;;;;8.05;99.91;102659.06;4979673;28;20887;-54
2022/11/12 02:21:44;;;;;;;3.10;2.53;;;;;;;8.05;99.68;102663.41;4971441;28;20764;-54
2022/11/12 02:24:33;;;;;;;2.77;2.57;;;;;;;8.06;99.08;102657.34;4983805;28;20237;-52
2022/11/12 02:27:00;;;;;;;2.13;2.03;;;;;;;8.03;99.46;102665.06;4979575;28;20312;-53
2022/11/12 02:29:27;;;;;;;2.93;2.40;;;;;;;8.00;99.57;102664.94;4967938;28;20237;-53
2022/11/12 02:31:54;;;;;;;3.30;2.53;;;;;;;8.01;99.47;102659.78;4981972;28;20309;-53
2022/11/12 02:34:21;;;;;;;2.73;2.53;;;;;;;8.02;99.32;102661.56;4980747;28;20230;-52
2022/11/12 02:36:49;;;;;;;3.87;2.73;;;;;;;8.02;99.32;102671.13;4979497;28;20241;-53
2022/11/12 02:39:16;;;;;;;5.13;2.60;;;;;;;8.03;99.01;102672.91;4978214;28;20250;-53
2022/11/12 02:41:43;;;;;;;2.63;2.23;;;;;;;8.02;98.88;102669.41;4975709;28;20861;-54
2022/11/12 02:44:10;;;;;;;2.90;2.47;;;;;;;8.01;98.65;102670.25;4973003;28;20227;-53
2022/11/12 02:46:37;;;;;;;5.53;3.10;;;;;;;7.95;98.49;102672.59;4969397;28;20277;-54
2022/11/12 02:49:04;;;;;;;2.87;2.57;;;;;;;7.93;99.35;102682.09;4977515;28;20744;-53
2022/11/12 02:51:31;;;;;;;3.70;2.37;;;;;;;7.91;99.50;102683.78;4980721;28;20230;-53
2022/11/12 02:54:00;;;;;;;3.77;2.50;;;;;;;7.89;99.85;102683.69;4982929;28;20653;-53
2022/11/12 02:56:27;;;;;;;2.63;2.10;;;;;;;7.87;99.73;102684.47;4978132;28;20861;-54
2022/11/12 02:58:53;;;;;;;3.53;2.23;;;;;;;7.83;99.77;102687.81;4968984;28;20778;-53
2022/11/12 03:01:20;;;;;;;4.40;2.40;;;;;;;7.79;100.00;102691.09;4970355;28;20234;-53
2022/11/12 03:03:47;;;;;;;2.40;2.20;;;;;;;7.79;100.00;102697.25;4983759;28;20951;-53
2022/11/12 03:06:16;;;;;;;3.30;2.67;;;;;;;7.82;100.00;102696.44;4988807;28;20241;-53
2022/11/12 03:08:43;;;;;;;2.27;2.07;;;;;;;7.76;100.00;102704.94;4985455;28;20601;-54
2022/11/12 03:11:13;;;;;;;3.33;2.40;;;;;;;7.76;100.00;102698.84;4980690;28;20724;-53
2022/11/12 03:13:40;;;;;;;4.30;2.60;;;;;;;7.72;100.00;102699.50;4984658;28;20229;-53
2022/11/12 03:16:08;;;;;;;5.03;3.27;;;;;;;7.75;99.99;102707.47;4982638;28;20226;-52
2022/11/12 03:18:36;;;;;;;5.77;2.90;;;;;;;7.73;100.00;102701.31;4978945;28;20867;-53
2022/11/12 03:21:03;;;;;;;4.30;2.77;;;;;;;7.72;99.97;102703.03;4984337;28;20233;-55
2022/11/12 03:23:30;;;;;;;5.50;2.80;;;;;;;7.71;99.81;102706.47;4981891;28;20297;-53
2022/11/12 03:25:57;;;;;;;3.73;2.63;;;;;;;7.70;100.00;102709.91;4985255;28;20238;-53
2022/11/12 03:28:25;;;;;;;5.20;2.73;;;;;;;7.69;99.90;102713.38;4986500;28;20241;-53
2022/11/12 03:30:57;;;;;;;2.83;2.30;;;;;;;7.67;100.00;102715.00;4980995;28;20617;-53
2022/11/12 03:33:24;;;;;;;2.67;2.47;;;;;;;7.68;100.00;102713.28;4976979;28;20329;-52
2022/11/12 03:35:51;;;;;;;5.83;2.80;;;;;;;7.70;100.00;102706.41;4977041;28;20262;-57
2022/11/12 03:38:18;;;;;;;3.17;2.87;;;;;;;7.70;100.00;102712.53;4986002;28;20225;-53
2022/11/12 03:40:45;;;;;;;3.47;2.87;;;;;;;7.64;100.00;102710.53;4984839;28;20693;-53
2022/11/12 03:43:12;;;;;;;2.60;2.40;;;;;;;7.63;100.00;102707.88;4981189;28;20250;-53
2022/11/12 03:45:40;;;;;;;2.90;2.30;;;;;;;7.62;100.00;102701.75;4983860;28;20715;-53
2022/11/12 03:48:07;;;;;;;3.27;2.30;;;;;;;7.62;100.00;102712.22;4980365;28;20272;-53
2022/11/12 03:50:34;;;;;;;4.33;3.20;;;;;;;7.59;100.00;102705.97;4986436;28;20238;-53
2022/11/12 03:53:01;;;;;;;3.40;2.53;;;;;;;7.56;100.00;102706.72;4990542;28;20242;-53
2022/11/12 03:55:29;;;;;;;6.10;2.30;;;;;;;7.53;100.00;102706.56;4980744;28;20261;-53
2022/11/12 03:57:58;;;;;;;2.83;2.30;;;;;;;7.51;100.00;102707.31;4984572;28;20234;-53
2022/11/12 04:00:27;;;;;;;4.77;2.50;;;;;;;7.50;100.00;102702.94;4985167;28;20739;-53
2022/11/12 04:02:55;;;;;;;2.63;2.30;;;;;;;7.47;100.00;102705.41;4987827;28;20242;-58
2022/11/12 04:10:59;;;;;;;2.93;2.70;;;;;;;7.41;100.00;102706.94;4979289;28;20291;-52
2022/11/12 04:13:27;;;;;;;3.43;2.50;;;;;;;7.41;100.00;102703.44;4985846;28;20758;-52
2022/11/12 04:27:01;;;;;;;5.60;2.80;;;;;;;7.31;100.00;102719.53;4981043;28;20654;-53
2022/11/12 04:32:14;;;;;;;5.37;3.00;;;;;;;7.34;100.00;102719.69;4981815;28;20663;-53
2022/11/12 04:34:42;;;;;;;5.10;3.03;;;;;;;7.32;100.00;102722.22;4971738;28;20266;-53
2022/11/12 04:37:09;;;;;;;3.47;3.00;;;;;;;7.28;100.00;102719.41;4969910;28;20231;-52
2022/11/12 04:39:36;;;;;;;3.70;3.20;;;;;;;7.22;100.00;102729.56;4971935;28;20228;-53
2022/11/12 04:45:01;;;;;;;3.00;2.80;;;;;;;7.11;100.00;102722.13;4979738;28;20311;-52
2022/11/12 04:47:34;;;;;;;4.40;2.97;;;;;;;7.07;100.00;102714.09;4975705;28;20243;-53
2022/11/12 04:50:04;;;;;;;4.00;2.93;;;;;;;7.03;100.00;102718.31;4987024;28;20237;-53
2022/11/12 04:52:32;;;;;;;4.57;2.90;;;;;;;7.00;100.00;102717.25;4977384;28;20262;-53
2022/11/12 04:54:59;;;;;;;3.33;2.97;;;;;;;6.99;100.00;102724.22;4981316;28;20906;-53
2022/11/12 04:57:26;;;;;;;5.87;3.27;;;;;;;6.99;100.00;102731.16;4984305;28;20234;-52
2022/11/12 04:59:53;;;;;;;3.07;2.77;;;;;;;6.99;100.00;102726.81;4977393;28;20237;-53
2022/11/12 05:02:19;;;;;;;3.67;3.17;;;;;;;6.93;100.00;102721.31;4982245;28;20322;-53
2022/11/12 05:04:46;;;;;;;4.17;3.20;;;;;;;6.90;100.00;102729.88;4986645;28;20345;-53
2022/11/12 05:07:14;;;;;;;5.97;3.70;;;;;;;6.89;100.00;102732.44;4975995;28;20317;-53
2022/11/12 05:09:41;;;;;;;7.90;4.80;;;;;;;6.82;100.00;102728.66;4979438;28;20266;-53
2022/11/12 05:12:08;;;;;;;5.30;4.67;;;;;;;6.77;100.00;102731.84;4979169;28;20321;-53
2022/11/12 05:14:35;;;;;;;7.67;5.50;;;;;;;6.72;100.00;102730.75;4975658;28;20234;-58
2022/11/12 05:17:02;;;;;;;7.73;6.23;;;;;;;6.64;100.00;102738.25;4980143;28;20337;-53
2022/11/12 05:19:29;;;;;;;12.50;7.00;;;;;;;6.56;100.00;102734.34;4976063;28;20333;-54
2022/11/12 05:22:08;;;;;;;10.07;7.03;;;;;;;6.51;100.00;102736.75;4977129;28;20325;-53
2022/11/12 05:24:37;;;;;;;9.40;6.43;;;;;;;6.47;100.00;102740.03;4984466;28;20233;-59
2022/11/12 05:27:06;;;;;;;7.97;5.83;;;;;;;6.43;100.00;102743.31;4982388;28;20238;-52
2022/11/12 05:29:33;;;;;;;7.20;6.07;;;;;;;6.39;100.00;102744.91;4976890;28;20258;-53
2022/11/12 05:32:00;;;;;;;12.00;6.67;;;;;;;6.37;100.00;102743.03;4980883;28;20258;-53
2022/11/12 05:34:27;;;;;;;8.13;6.30;;;;;;;6.35;100.00;102745.56;4980562;28;20890;-53
2022/11/12 05:36:55;;;;;;;9.53;7.03;;;;;;;6.31;100.00;102740.09;4981991;28;25887;-53
2022/11/12 05:39:22;;;;;;;10.97;6.70;;;;;;;6.24;100.00;102740.63;4982899;28;20229;-53
2022/11/12 05:41:50;;;;;;;6.60;6.00;;;;;;;6.21;100.00;102742.28;4983697;28;20245;-53
2022/11/12 05:44:17;;;;;;;11.57;6.40;;;;;;;6.22;100.00;102744.06;4974926;28;20242;-53
2022/11/12 05:46:44;;;;;;;6.87;4.87;;;;;;;6.18;100.00;102744.75;4982410;28;20242;-53
2022/11/12 05:49:12;;;;;;;7.33;5.97;;;;;;;6.16;100.00;102743.75;4978818;28;20235;-53
2022/11/12 05:51:39;;;;;;;8.17;6.13;;;;;;;6.16;100.00;102748.97;4972540;28;20226;-54
2022/11/12 05:54:06;;;;;;;7.53;5.80;;;;;;;6.10;100.00;102745.16;4984119;28;20230;-54
2022/11/12 05:56:34;;;;;;;8.33;6.67;;;;;;;6.13;100.00;102742.72;4982714;28;20253;-52
2022/11/12 05:59:03;;;;;;;8.90;7.00;;;;;;;6.12;100.00;102754.88;4982160;28;20237;-53
2022/11/12 06:01:30;;;;;;;7.13;6.43;;;;;;;6.11;100.00;102745.25;4980966;28;20710;-53
2022/11/12 06:03:57;;;;;;;6.67;6.07;;;;;;;6.12;100.00;102747.03;4978605;28;20762;-52
2022/11/12 06:06:25;;;;;;;6.23;5.33;;;;;;;6.15;100.00;102746.31;4982503;28;20234;-55
2022/11/12 06:08:52;;;;;;;5.93;4.80;;;;;;;6.15;100.00;102748.91;4976127;28;20238;-52
2022/11/12 06:11:19;;;;;;;6.23;5.63;;;;;;;6.18;100.00;102747.34;4982211;28;21289;-52
2022/11/12 06:13:47;;;;;;;6.57;4.97;;;;;;;6.24;100.00;102751.06;4982147;28;20226;-53
2022/11/12 06:16:15;;;;;;;7.00;4.83;;;;;;;6.26;100.00;102757.25;4986998;28;20288;-53
2022/11/12 06:18:42;;;;;;;6.27;5.13;;;;;;;6.28;100.00;102747.78;4981488;28;20237;-54
2022/11/12 06:21:20;;;;;;;6.17;5.57;;;;;;;6.29;100.00;102750.47;4977929;28;20226;-53
2022/11/12 06:23:48;;;;;;;7.40;6.00;;;;;;;6.29;100.00;102750.47;4986471;28;20283;-54
2022/11/12 06:26:15;;;;;;;7.30;5.80;;;;;;;6.26;100.00;102744.22;4972471;28;20298;-52
2022/11/12 06:28:42;;;;;;;7.47;6.10;;;;;;;6.28;100.00;102758.22;4977902;28;20304;-53
2022/11/12 06:31:09;;;;;;;7.17;6.43;;;;;;;6.28;100.00;102758.22;4983229;28;20337;-53
2022/11/12 06:33:37;;;;;;;6.47;5.83;;;;;;;6.26;100.00;102765.09;4980931;28;20288;-54
2022/11/12 06:36:06;;;;;;;7.10;6.40;;;;;;;6.27;100.00;102756.44;4980976;28;20239;-53
2022/11/12 06:38:37;;;;;;;8.90;8.00;;;;;;;6.24;100.00;102769.31;4976229;28;20237;-53
2022/11/12 06:41:07;;;;;;;8.90;7.67;;;;;;;6.16;100.00;102775.06;4978655;28;20258;-54
2022/11/12 06:43:35;;;;;;;10.07;7.97;;;;;;;6.12;100.00;102767.91;4972119;28;20302;-54
2022/11/12 06:46:02;;;;;;;17.67;8.07;;;;;;;6.14;100.00;102787.16;4976095;28;20332;-52
2022/11/12 06:48:30;;;;;;;7.67;6.90;;;;;;;6.09;100.00;102783.38;4981174;28;20811;-53
2022/11/12 06:50:59;;;;;;;10.07;8.10;;;;;;;6.13;100.00;102784.44;4980253;28;20630;-53
2022/11/12 06:53:26;;;;;;;10.70;8.00;;;;;;;6.11;100.00;102792.19;4976371;28;20736;-53
2022/11/12 06:55:53;;;;;;;9.87;8.03;;;;;;;6.11;100.00;102797.41;4981185;28;20234;-53
2022/11/12 06:58:20;;;;;;;12.43;7.30;;;;;;;6.12;100.00;102798.31;4981380;28;20221;-53
2022/11/12 07:00:47;;;;;;;10.87;8.23;;;;;;;6.14;100.00;102792.34;4980091;28;20230;-53
2022/11/12 07:03:15;;;;;;;11.73;9.30;;;;;;;6.16;100.00;102795.03;4978459;28;22012;-53
2022/11/12 07:05:43;;;;;;;12.33;9.80;;;;;;;6.15;100.00;102796.75;4981496;28;20241;-54
2022/11/12 07:08:11;;;;;;;10.33;8.20;;;;;;;6.14;100.00;102791.44;4975965;28;20238;-53
2022/11/12 07:10:38;;;;;;;13.80;9.80;;;;;;;6.18;100.00;102799.50;4981039;28;20967;-52
2022/11/12 07:13:06;;;;;;;10.83;8.70;;;;;;;6.22;100.00;102797.94;4975782;28;20240;-55
2022/11/12 07:15:32;;;;;;;14.83;9.23;;;;;;;6.27;100.00;102799.06;4976753;28;20242;-53
2022/11/12 07:17:59;;;;;;;12.23;9.90;;;;;;;6.33;100.00;102795.88;4976975;28;20296;-52
2022/11/12 07:20:27;;;;;;;11.40;9.57;;;;;;;6.35;100.00;102802.97;4980263;28;20237;-53
2022/11/12 07:22:53;;;;;;;13.10;11.03;;;;;;;6.40;100.00;102806.69;4974479;28;20237;-53
2022/11/12 07:25:22;;;;;;;14.57;10.10;;;;;;;6.44;100.00;102812.94;4979935;28;20262;-53
2022/11/12 07:27:49;;;;;;;12.43;10.03;;;;;;;6.49;100.00;102815.78;4979361;28;20234;-54
2022/11/12 07:30:16;;;;;;;12.27;9.63;;;;;;;6.51;100.00;102804.59;4972274;28;20238;-54
2022/11/12 07:32:43;;;;;;;11.57;8.93;;;;;;;6.54;100.00;102812.59;4958417;28;20301;-53
2022/11/12 07:35:11;;;;;;;10.13;7.37;;;;;;;6.63;100.00;102825.16;4970328;28;20288;-53
2022/11/12 07:37:38;;;;;;;8.27;6.70;;;;;;;6.72;100.00;102815.19;4981463;28;20229;-53
2022/11/12 07:40:08;;;;;;;9.03;6.83;;;;;;;6.83;100.00;102819.19;4974460;28;20236;-53
2022/11/12 07:42:36;;;;;;;6.67;5.93;;;;;;;6.91;100.00;102812.66;4975419;28;20238;-54
2022/11/12 07:45:03;;;;;;;7.60;6.10;;;;;;;7.00;100.00;102824.34;4978136;28;20242;-53
2022/11/12 07:47:30;;;;;;;7.33;5.80;;;;;;;7.06;100.00;102822.91;4982741;28;20237;-54
2022/11/12 07:49:58;;;;;;;8.57;5.20;;;;;;;7.13;100.00;102819.75;4979802;28;20265;-52
2022/11/12 07:52:25;;;;;;;8.47;5.87;;;;;;;7.21;100.00;102825.34;4982473;28;20968;-53
2022/11/12 07:54:52;;;;;;;6.10;4.97;;;;;;;7.31;100.00;102824.06;4983706;28;20316;-54
2022/11/12 07:57:22;;;;;;;4.73;3.87;;;;;;;7.38;100.00;102821.78;4975363;28;20952;-53
2022/11/12 07:59:51;;;;;;;6.67;3.90;;;;;;;7.47;100.00;102833.47;4973720;28;20266;-53
2022/11/12 08:02:18;;;;;;;7.97;4.97;;;;;;;7.54;100.00;102823.34;4981136;28;20230;-52
2022/11/12 08:04:45;;;;;;;6.33;4.43;;;;;;;7.62;100.00;102822.00;4979668;28;20523;-53
2022/11/12 08:07:12;;;;;;;8.27;4.33;;;;;;;7.72;100.00;102827.63;4978886;28;20237;-52
2022/11/12 08:09:39;;;;;;;5.97;3.97;;;;;;;7.78;100.00;102828.78;4974356;28;20246;-54
2022/11/12 08:12:06;;;;;;;4.57;4.17;;;;;;;7.87;100.00;102842.28;4975380;28;20237;-52
2022/11/12 08:14:33;;;;;;;4.77;4.27;;;;;;;7.97;100.00;102829.59;4980722;28;20238;-52
2022/11/12 08:17:02;;;;;;;10.17;5.00;;;;;;;8.10;100.00;102837.13;4972827;28;20242;-53
2022/11/12 08:19:29;;;;;;;8.50;4.77;;;;;;;8.20;100.00;102841.06;4975415;28;20324;-53
2022/11/12 08:21:55;;;;;;;4.93;4.53;;;;;;;8.31;100.00;102842.41;4978687;28;20628;-53
2022/11/12 08:24:23;;;;;;;5.07;4.10;;;;;;;8.36;100.00;102839.16;4978097;28;20289;-53
2022/11/12 08:26:50;;;;;;;8.23;4.77;;;;;;;8.41;100.00;102842.00;4980118;28;20234;-53
2022/11/12 08:29:17;;;;;;;6.43;4.40;;;;;;;8.51;100.00;102831.06;4978605;28;20237;-53
2022/11/12 08:31:44;;;;;;;7.20;5.20;;;;;;;8.58;100.00;102833.09;4974323;28;20230;-52
2022/11/12 08:34:12;;;;;;;8.33;5.00;;;;;;;8.66;100.00;102840.38;4977906;28;20288;-52
2022/11/12 08:36:40;;;;;;;6.00;5.37;;;;;;;8.73;100.00;102837.19;4975146;28;20254;-52
2022/11/12 08:39:07;;;;;;;6.57;5.13;;;;;;;8.79;99.94;102840.06;4974922;28;20701;-53
2022/11/12 08:41:34;;;;;;;7.43;4.50;;;;;;;8.87;100.00;102832.50;4980211;28;20225;-54
2022/11/12 08:44:02;;;;;;;5.53;4.60;;;;;;;8.92;100.00;102834.47;4981966;28;20248;-53
2022/11/12 08:46:29;;;;;;;6.67;5.20;;;;;;;9.00;99.22;102840.91;4984356;28;20234;-54
2022/11/12 08:48:56;;;;;;;5.67;5.17;;;;;;;8.95;99.24;102839.84;4978930;28;20321;-53
2022/11/12 08:51:24;;;;;;;8.43;6.13;;;;;;;8.98;99.74;102837.31;4983447;28;20238;-53
2022/11/12 08:53:51;;;;;;;5.47;4.97;;;;;;;9.14;99.85;102824.81;4981984;28;20230;-53
2022/11/12 08:56:18;;;;;;;6.73;5.07;;;;;;;9.28;99.15;102834.09;4978748;28;20242;-54
2022/11/12 08:58:45;;;;;;;8.30;5.50;;;;;;;9.41;98.44;102832.84;4981905;28;20288;-54
2022/11/12 09:01:12;;;;;;;6.03;5.03;;;;;;;9.51;97.57;102828.00;4984057;28;20225;-52
2022/11/12 09:03:40;;;;;;;9.03;6.37;;;;;;;9.65;97.60;102835.47;4982940;28;20288;-54
2022/11/12 09:06:07;;;;;;;6.93;6.23;;;;;;;9.78;97.62;102835.97;4980154;28;20234;-53
2022/11/12 09:08:38;;;;;;;9.70;6.43;;;;;;;9.73;98.51;102834.94;4982333;28;20321;-53
2022/11/12 09:11:09;;;;;;;7.00;5.77;;;;;;;9.88;98.29;102834.56;4982178;28;20237;-53
2022/11/12 09:13:36;;;;;;;8.27;5.93;;;;;;;10.03;97.56;102827.22;4975015;28;20518;-52
2022/11/12 09:16:04;;;;;;;9.17;6.87;;;;;;;10.15;97.94;102833.78;4976697;28;20240;-53
2022/11/12 09:18:32;;;;;;;9.07;6.13;;;;;;;10.26;97.51;102837.69;4982803;28;20226;-53
2022/11/12 09:21:03;;;;;;;10.73;7.63;;;;;;;10.31;98.39;102843.97;4975200;28;20234;-54
2022/11/12 09:23:30;;;;;;;11.73;7.93;;;;;;;10.30;99.34;102850.06;4975355;28;20324;-52
2022/11/12 09:25:59;;;;;;;8.53;6.83;;;;;;;10.34;100.00;102851.06;4978402;28;20708;-53
2022/11/12 09:28:26;;;;;;;10.63;7.50;;;;;;;10.37;100.00;102844.19;4968162;28;20613;-53
2022/11/12 09:30:54;;;;;;;13.70;7.87;;;;;;;10.44;100.00;102838.28;4976551;28;20586;-53
2022/11/12 09:33:22;;;;;;;11.73;7.60;;;;;;;10.51;100.00;102835.03;4979627;28;20341;-54
2022/11/12 09:35:50;;;;;;;8.50;7.43;;;;;;;10.59;100.00;102842.28;4978669;28;20630;-54
2022/11/12 09:38:18;;;;;;;13.30;8.13;;;;;;;10.64;100.00;102835.44;4978581;28;20233;-54
2022/11/12 09:41:02;;;;;;;9.77;8.13;;;;;;;10.73;100.00;102839.25;4976113;28;20234;-53
2022/11/12 09:43:33;;;;;;;11.40;7.50;;;;;;;10.81;100.00;102838.59;4972014;28;20320;-54
2022/11/12 09:46:05;;;;;;;15.47;8.43;;;;;;;10.91;100.00;102846.81;4978708;28;20739;-53
2022/11/12 09:48:36;;;;;;;10.23;8.43;;;;;;;10.98;100.00;102830.38;4980653;28;20695;-54
2022/11/12 09:51:05;;;;;;;10.63;7.93;;;;;;;11.08;100.00;102843.81;4972530;28;20269;-54
2022/11/12 09:53:36;;;;;;;14.48;9.43;;;;;;;11.14;100.00;102839.66;4981243;28;20233;-53
2022/11/12 09:56:06;;;;;;;11.18;8.93;;;;;;;11.25;100.00;102832.09;4972227;28;20300;-53
2022/11/12 09:58:35;;;;;;;11.32;7.88;;;;;;;11.30;100.00;102830.50;4974191;28;20244;-54
2022/11/12 10:01:10;;;;;;;12.73;8.25;;;;;;;11.38;100.00;102839.50;4974230;28;20250;-53
2022/11/12 10:03:42;;;;;;;10.52;8.18;;;;;;;11.49;100.00;102844.19;4972948;28;20230;-52
2022/11/12 10:06:13;;;;;;;11.52;8.95;;;;;;;11.55;100.00;102844.34;4979128;28;20610;-53
2022/11/12 10:08:45;;;;;;;15.38;9.18;;;;;;;11.59;100.00;102841.88;4980256;28;20234;-53
2022/11/12 10:11:26;;;;;;;11.77;8.25;;;;;;;11.60;100.00;102825.22;4975996;28;20364;-53
2022/11/12 10:14:03;;;;;;;15.85;11.32;;;;;;;11.58;100.00;102828.66;4976514;28;20309;-54
2022/11/12 10:16:44;;;;;;;18.50;11.32;;;;;;;11.41;100.00;102833.44;4973493;28;20245;-53
2022/11/12 10:19:21;;;;;;;15.65;9.98;;;;;;;11.47;100.00;102830.97;4977640;28;20236;-54
2022/11/12 10:21:55;;;;;;;12.68;9.80;;;;;;;11.53;100.00;102825.00;4976540;28;20324;-54
2022/11/12 10:24:23;;;;;;;15.70;10.20;;;;;;;11.50;100.00;102831.06;4974058;28;20233;-53
2022/11/12 10:26:52;;;;;;;14.02;10.23;;;;;;;11.56;100.00;102844.41;4978301;28;20234;-53
2022/11/12 10:29:28;;;;;;;14.05;10.30;;;;;;;11.64;100.00;102828.84;4973246;28;21278;-54
2022/11/12 10:31:54;;;;;;;11.80;9.07;;;;;;;11.69;100.00;102816.72;4981547;28;20222;-53
2022/11/12 10:34:22;;;;;;;11.93;8.90;;;;;;;11.73;100.00;102839.63;4978437;28;20313;-53
2022/11/12 10:36:51;;;;;;;12.88;7.90;;;;;;;11.80;100.00;102857.38;4977570;28;20260;-53
2022/11/12 10:39:33;;;;;;;12.70;9.73;;;;;;;11.85;100.00;102837.34;4974572;28;20232;-54
2022/11/12 10:42:08;;;;;;;16.77;9.90;;;;;;;11.86;100.00;102812.84;4974937;28;20308;-54
2022/11/12 10:44:37;;;;;;;13.20;10.02;;;;;;;11.92;100.00;102838.41;4973321;28;20265;-53
2022/11/12 10:47:28;;;;;;;12.35;8.38;;;;;;;11.93;100.00;102848.09;4978327;28;20306;-53
2022/11/12 10:50:11;;;;;;;12.32;9.52;;;;;;;11.94;100.00;102829.72;4959124;28;20317;-53
2022/11/12 10:52:37;;;;;;;12.40;8.38;;;;;;;12.03;100.00;102828.19;4975380;28;20233;-54
2022/11/12 10:55:07;;;;;;;11.27;7.60;;;;;;;12.06;100.00;102830.91;4977277;28;20240;-54
2022/11/12 10:57:34;;;;;;;12.55;7.97;;;;;;;12.07;100.00;102827.41;4974448;28;20226;-54
2022/11/12 11:00:16;;;;;;;15.40;9.57;;;;;;;11.99;100.00;102828.94;4974806;28;20633;-53
2022/11/12 11:02:46;;;;;;;14.40;8.52;;;;;;;12.07;100.00;102832.66;4978359;28;20352;-53
2022/11/12 11:05:27;;;;;;;12.18;8.18;;;;;;;12.15;100.00;102836.41;4980202;28;20307;-54
2022/11/12 11:07:54;;;;;;;9.88;7.32;;;;;;;12.20;100.00;102820.72;4978546;28;20257;-54
2022/11/12 11:10:23;;;;;;;10.57;7.07;;;;;;;12.23;100.00;102829.59;4978690;28;20230;-53
2022/11/12 11:12:51;;;;;;;10.07;6.60;;;;;;;12.28;100.00;102838.50;4977417;28;20230;-53
2022/11/12 11:15:22;;;;;;;13.18;9.95;;;;;;;12.25;100.00;102820.00;4978118;28;20344;-53
2022/11/12 11:17:48;;;;;;;10.55;7.97;;;;;;;12.30;100.00;102815.72;4979230;28;20321;-53
2022/11/12 11:20:19;;;;;;;8.80;6.13;;;;;;;12.40;100.00;102817.75;4977776;28;20708;-53
2022/11/12 11:22:47;;;;;;;10.70;6.90;;;;;;;12.49;100.00;102827.59;4981004;28;20226;-54
2022/11/12 11:25:19;;;;;;;10.77;7.85;;;;;;;12.52;100.00;102811.00;4978577;28;20611;-54
2022/11/12 11:27:56;;;;;;;8.07;6.70;;;;;;;12.57;100.00;102815.53;4982529;28;20233;-54
2022/11/12 11:30:24;;;;;;;7.90;6.68;;;;;;;12.59;99.94;102818.19;4976750;28;20283;-54
2022/11/12 11:33:05;;;;;;;10.90;7.25;;;;;;;12.56;99.61;102812.84;4982855;28;20719;-54
2022/11/12 11:35:44;;;;;;;9.35;5.82;;;;;;;12.50;99.94;102812.72;4979438;28;20316;-54
2022/11/12 11:38:22;;;;;;;7.85;6.50;;;;;;;12.48;100.00;102801.25;4981078;28;20772;-54
2022/11/12 11:40:56;;;;;;;7.30;5.57;;;;;;;12.46;100.00;102809.13;4975385;28;20243;-52
2022/11/12 11:43:37;;;;;;;10.48;6.50;;;;;;;12.41;100.00;102808.09;4978874;28;20258;-54
2022/11/12 11:46:19;;;;;;;7.55;5.93;;;;;;;12.37;100.00;102806.25;4979417;28;20330;-53
2022/11/12 11:48:58;;;;;;;9.48;7.07;;;;;;;12.29;100.00;102792.88;4977875;28;20234;-53
2022/11/12 11:51:36;;;;;;;8.48;6.72;;;;;;;12.24;100.00;102791.88;4980113;28;20330;-53